sensor_id;sensor_type;location;lat;lon;timestamp;P1;durP1;ratioP1;P2;durP2;ratioP2
28802;SDS011;15949;55.656;37.422;2022-08-01T00:04:49;10.75;;;4.75;;
28802;SDS011;15949;55.656;37.422;2022-08-01T00:09:55;60.85;;;19.77;;
28802;SDS011;15949;55.656;37.422;2022-08-01T00:15:00;63.95;;;29.02;;
28802;SDS011;15949;55.656;37.422;2022-08-01T00:20:08;17.27;;;5.18;;
28802;SDS011;15949;55.656;37.422;2022-08-01T00:25:15;10.52;;;5.65;;
28802;SDS011;15949;55.656;37.422;2022-08-01T00:30:20;9.85;;;4.78;;
28802;SDS011;15949;55.656;37.422;2022-08-01T00:35:26;16.48;;;7.72;;
28802;SDS011;15949;55.656;37.422;2022-08-01T00:40:31;12.13;;;6.13;;
28802;SDS011;15949;55.656;37.422;2022-08-01T00:45:37;13.82;;;5.38;;
28802;SDS011;15949;55.656;37.422;2022-08-01T00:50:43;11.52;;;5.10;;
28802;SDS011;15949;55.656;37.422;2022-08-01T00:55:48;14.20;;;5.18;;
28802;SDS011;15949;55.656;37.422;2022-08-01T01:00:57;9.40;;;4.65;;
28802;SDS011;15949;55.656;37.422;2022-08-01T01:11:37;13.80;;;4.53;;
28802;SDS011;15949;55.656;37.422;2022-08-01T01:17:02;8.48;;;4.38;;
28802;SDS011;15949;55.656;37.422;2022-08-01T01:33:10;12.30;;;4.03;;
28802;SDS011;15949;55.656;37.422;2022-08-01T01:38:20;8.93;;;4.20;;
28802;SDS011;15949;55.656;37.422;2022-08-01T01:43:27;16.08;;;4.55;;
28802;SDS011;15949;55.656;37.422;2022-08-01T01:48:35;8.48;;;4.10;;
28802;SDS011;15949;55.656;37.422;2022-08-01T01:53:41;10.85;;;3.95;;
28802;SDS011;15949;55.656;37.422;2022-08-01T01:58:49;9.07;;;4.40;;
28802;SDS011;15949;55.656;37.422;2022-08-01T02:03:57;8.85;;;4.20;;
28802;SDS011;15949;55.656;37.422;2022-08-01T02:09:04;12.10;;;4.43;;
28802;SDS011;15949;55.656;37.422;2022-08-01T02:14:12;13.98;;;4.57;;
28802;SDS011;15949;55.656;37.422;2022-08-01T02:19:19;9.35;;;4.30;;
28802;SDS011;15949;55.656;37.422;2022-08-01T02:24:35;16.17;;;4.70;;
28802;SDS011;15949;55.656;37.422;2022-08-01T02:29:53;12.43;;;4.55;;
28802;SDS011;15949;55.656;37.422;2022-08-01T02:35:03;9.68;;;4.03;;
28802;SDS011;15949;55.656;37.422;2022-08-01T02:40:12;11.75;;;4.32;;
28802;SDS011;15949;55.656;37.422;2022-08-01T02:45:20;8.02;;;4.28;;
28802;SDS011;15949;55.656;37.422;2022-08-01T02:50:29;10.38;;;4.22;;
28802;SDS011;15949;55.656;37.422;2022-08-01T02:55:38;10.15;;;4.50;;
28802;SDS011;15949;55.656;37.422;2022-08-01T03:00:45;9.82;;;4.78;;
28802;SDS011;15949;55.656;37.422;2022-08-01T03:05:52;8.52;;;4.60;;
28802;SDS011;15949;55.656;37.422;2022-08-01T03:10:59;9.57;;;4.68;;
28802;SDS011;15949;55.656;37.422;2022-08-01T03:16:24;8.75;;;4.20;;
28802;SDS011;15949;55.656;37.422;2022-08-01T03:21:32;8.18;;;4.15;;
28802;SDS011;15949;55.656;37.422;2022-08-01T03:26:39;9.45;;;4.75;;
28802;SDS011;15949;55.656;37.422;2022-08-01T03:31:47;6.95;;;4.47;;
28802;SDS011;15949;55.656;37.422;2022-08-01T03:37:02;7.72;;;4.22;;
28802;SDS011;15949;55.656;37.422;2022-08-01T03:42:17;8.25;;;4.18;;
28802;SDS011;15949;55.656;37.422;2022-08-01T03:47:26;5.88;;;4.38;;
28802;SDS011;15949;55.656;37.422;2022-08-01T03:52:36;9.10;;;4.30;;
28802;SDS011;15949;55.656;37.422;2022-08-01T03:57:44;10.82;;;4.15;;
28802;SDS011;15949;55.656;37.422;2022-08-01T04:02:52;10.77;;;4.35;;
28802;SDS011;15949;55.656;37.422;2022-08-01T04:07:58;11.70;;;4.00;;
28802;SDS011;15949;55.656;37.422;2022-08-01T04:19:33;9.68;;;3.53;;
28802;SDS011;15949;55.656;37.422;2022-08-01T04:24:39;6.47;;;3.38;;
28802;SDS011;15949;55.656;37.422;2022-08-01T04:29:47;8.82;;;3.33;;
28802;SDS011;15949;55.656;37.422;2022-08-01T04:34:56;8.57;;;2.80;;
28802;SDS011;15949;55.656;37.422;2022-08-01T04:40:05;7.53;;;3.47;;
28802;SDS011;15949;55.656;37.422;2022-08-01T04:45:12;8.57;;;3.58;;
28802;SDS011;15949;55.656;37.422;2022-08-01T04:50:17;7.70;;;3.30;;
28802;SDS011;15949;55.656;37.422;2022-08-01T04:55:26;7.80;;;3.47;;
28802;SDS011;15949;55.656;37.422;2022-08-01T05:00:32;6.93;;;3.22;;
28802;SDS011;15949;55.656;37.422;2022-08-01T05:05:39;4.75;;;3.00;;
28802;SDS011;15949;55.656;37.422;2022-08-01T05:10:44;10.57;;;3.50;;
28802;SDS011;15949;55.656;37.422;2022-08-01T05:15:50;10.13;;;3.30;;
28802;SDS011;15949;55.656;37.422;2022-08-01T05:20:55;6.38;;;3.30;;
28802;SDS011;15949;55.656;37.422;2022-08-01T05:26:01;6.93;;;3.30;;
28802;SDS011;15949;55.656;37.422;2022-08-01T05:31:06;11.55;;;3.50;;
28802;SDS011;15949;55.656;37.422;2022-08-01T05:36:12;8.63;;;2.90;;
28802;SDS011;15949;55.656;37.422;2022-08-01T05:41:18;7.63;;;3.00;;
28802;SDS011;15949;55.656;37.422;2022-08-01T05:46:23;7.15;;;2.63;;
28802;SDS011;15949;55.656;37.422;2022-08-01T05:51:29;7.15;;;2.70;;
28802;SDS011;15949;55.656;37.422;2022-08-01T05:56:35;8.38;;;2.88;;
28802;SDS011;15949;55.656;37.422;2022-08-01T06:01:41;6.32;;;2.78;;
28802;SDS011;15949;55.656;37.422;2022-08-01T06:06:46;11.10;;;2.85;;
28802;SDS011;15949;55.656;37.422;2022-08-01T06:11:53;10.07;;;2.72;;
28802;SDS011;15949;55.656;37.422;2022-08-01T06:16:59;17.35;;;2.88;;
28802;SDS011;15949;55.656;37.422;2022-08-01T06:22:04;5.68;;;2.63;;
28802;SDS011;15949;55.656;37.422;2022-08-01T06:27:10;7.28;;;3.10;;
28802;SDS011;15949;55.656;37.422;2022-08-01T06:32:15;8.60;;;3.33;;
28802;SDS011;15949;55.656;37.422;2022-08-01T06:37:21;8.55;;;3.33;;
28802;SDS011;15949;55.656;37.422;2022-08-01T06:42:27;11.45;;;3.47;;
28802;SDS011;15949;55.656;37.422;2022-08-01T06:47:33;7.32;;;2.95;;
28802;SDS011;15949;55.656;37.422;2022-08-01T06:52:38;11.88;;;3.00;;
28802;SDS011;15949;55.656;37.422;2022-08-01T06:57:45;9.00;;;3.20;;
28802;SDS011;15949;55.656;37.422;2022-08-01T07:02:55;8.10;;;3.03;;
28802;SDS011;15949;55.656;37.422;2022-08-01T07:08:02;10.27;;;2.78;;
28802;SDS011;15949;55.656;37.422;2022-08-01T07:13:07;7.10;;;2.83;;
28802;SDS011;15949;55.656;37.422;2022-08-01T07:18:13;10.02;;;2.78;;
28802;SDS011;15949;55.656;37.422;2022-08-01T07:23:18;4.85;;;2.50;;
28802;SDS011;15949;55.656;37.422;2022-08-01T07:28:24;6.70;;;2.67;;
28802;SDS011;15949;55.656;37.422;2022-08-01T07:33:29;5.05;;;2.60;;
28802;SDS011;15949;55.656;37.422;2022-08-01T07:38:35;7.32;;;2.70;;
28802;SDS011;15949;55.656;37.422;2022-08-01T07:43:40;7.97;;;2.47;;
28802;SDS011;15949;55.656;37.422;2022-08-01T07:48:46;8.60;;;2.80;;
28802;SDS011;15949;55.656;37.422;2022-08-01T07:53:52;12.70;;;2.78;;
28802;SDS011;15949;55.656;37.422;2022-08-01T07:58:57;6.28;;;2.75;;
28802;SDS011;15949;55.656;37.422;2022-08-01T08:04:03;6.63;;;2.60;;
28802;SDS011;15949;55.656;37.422;2022-08-01T08:09:09;8.82;;;2.50;;
28802;SDS011;15949;55.656;37.422;2022-08-01T08:14:15;7.38;;;2.35;;
28802;SDS011;15949;55.656;37.422;2022-08-01T08:19:21;6.82;;;2.42;;
28802;SDS011;15949;55.656;37.422;2022-08-01T08:24:26;4.95;;;2.22;;
28802;SDS011;15949;55.656;37.422;2022-08-01T08:29:32;5.43;;;2.50;;
28802;SDS011;15949;55.656;37.422;2022-08-01T08:34:38;7.78;;;2.05;;
28802;SDS011;15949;55.656;37.422;2022-08-01T08:39:43;8.30;;;2.40;;
28802;SDS011;15949;55.656;37.422;2022-08-01T08:44:49;5.00;;;2.30;;
28802;SDS011;15949;55.656;37.422;2022-08-01T08:49:55;8.48;;;2.00;;
28802;SDS011;15949;55.656;37.422;2022-08-01T08:55:01;12.65;;;2.30;;
28802;SDS011;15949;55.656;37.422;2022-08-01T09:00:07;5.85;;;2.00;;
28802;SDS011;15949;55.656;37.422;2022-08-01T09:05:14;6.32;;;2.13;;
28802;SDS011;15949;55.656;37.422;2022-08-01T09:10:21;4.40;;;2.20;;
28802;SDS011;15949;55.656;37.422;2022-08-01T09:15:49;54.20;;;4.55;;
28802;SDS011;15949;55.656;37.422;2022-08-01T09:21:11;6.10;;;1.65;;
28802;SDS011;15949;55.656;37.422;2022-08-01T09:26:20;2.95;;;1.30;;
28802;SDS011;15949;55.656;37.422;2022-08-01T09:31:40;7.53;;;1.60;;
28802;SDS011;15949;55.656;37.422;2022-08-01T09:36:57;8.23;;;2.15;;
28802;SDS011;15949;55.656;37.422;2022-08-01T09:47:36;5.25;;;1.77;;
28802;SDS011;15949;55.656;37.422;2022-08-01T09:52:51;3.30;;;1.95;;
28802;SDS011;15949;55.656;37.422;2022-08-01T09:57:58;5.95;;;1.90;;
28802;SDS011;15949;55.656;37.422;2022-08-01T10:03:21;4.38;;;1.83;;
28802;SDS011;15949;55.656;37.422;2022-08-01T10:08:28;4.43;;;1.75;;
28802;SDS011;15949;55.656;37.422;2022-08-01T10:13:51;10.27;;;2.10;;
28802;SDS011;15949;55.656;37.422;2022-08-01T10:18:57;4.57;;;1.70;;
28802;SDS011;15949;55.656;37.422;2022-08-01T10:24:04;8.57;;;2.15;;
28802;SDS011;15949;55.656;37.422;2022-08-01T10:29:10;5.00;;;1.95;;
28802;SDS011;15949;55.656;37.422;2022-08-01T10:34:18;6.90;;;1.60;;
28802;SDS011;15949;55.656;37.422;2022-08-01T10:39:25;5.13;;;1.90;;
28802;SDS011;15949;55.656;37.422;2022-08-01T10:44:34;6.30;;;1.90;;
28802;SDS011;15949;55.656;37.422;2022-08-01T10:49:49;4.38;;;1.70;;
28802;SDS011;15949;55.656;37.422;2022-08-01T10:55:05;5.93;;;1.80;;
28802;SDS011;15949;55.656;37.422;2022-08-01T11:00:19;6.68;;;1.70;;
28802;SDS011;15949;55.656;37.422;2022-08-01T11:05:26;10.18;;;3.00;;
28802;SDS011;15949;55.656;37.422;2022-08-01T11:10:39;7.15;;;2.17;;
28802;SDS011;15949;55.656;37.422;2022-08-01T11:15:48;5.88;;;2.13;;
28802;SDS011;15949;55.656;37.422;2022-08-01T11:21:00;7.10;;;2.15;;
28802;SDS011;15949;55.656;37.422;2022-08-01T11:26:07;5.38;;;4.22;;
28802;SDS011;15949;55.656;37.422;2022-08-01T11:36:21;9.43;;;3.80;;
28802;SDS011;15949;55.656;37.422;2022-08-01T11:41:29;6.07;;;4.20;;
28802;SDS011;15949;55.656;37.422;2022-08-01T12:02:29;6.93;;;2.10;;
28802;SDS011;15949;55.656;37.422;2022-08-01T12:07:37;5.00;;;2.00;;
28802;SDS011;15949;55.656;37.422;2022-08-01T12:13:16;3.65;;;1.80;;
28802;SDS011;15949;55.656;37.422;2022-08-01T12:18:15;4.40;;;1.85;;
28802;SDS011;15949;55.656;37.422;2022-08-01T12:23:21;6.93;;;2.10;;
28802;SDS011;15949;55.656;37.422;2022-08-01T12:28:26;5.63;;;2.05;;
28802;SDS011;15949;55.656;37.422;2022-08-01T12:33:32;6.22;;;1.92;;
28802;SDS011;15949;55.656;37.422;2022-08-01T12:38:38;6.53;;;2.00;;
28802;SDS011;15949;55.656;37.422;2022-08-01T12:43:43;8.63;;;2.00;;
28802;SDS011;15949;55.656;37.422;2022-08-01T12:48:49;5.05;;;1.85;;
28802;SDS011;15949;55.656;37.422;2022-08-01T12:53:57;7.32;;;2.05;;
28802;SDS011;15949;55.656;37.422;2022-08-01T12:59:23;8.25;;;2.05;;
28802;SDS011;15949;55.656;37.422;2022-08-01T13:04:33;3.65;;;1.83;;
28802;SDS011;15949;55.656;37.422;2022-08-01T13:09:55;4.97;;;2.00;;
28802;SDS011;15949;55.656;37.422;2022-08-01T13:20:26;3.22;;;1.70;;
28802;SDS011;15949;55.656;37.422;2022-08-01T13:25:32;4.93;;;2.03;;
28802;SDS011;15949;55.656;37.422;2022-08-01T13:30:38;4.93;;;1.80;;
28802;SDS011;15949;55.656;37.422;2022-08-01T13:35:43;4.80;;;1.80;;
28802;SDS011;15949;55.656;37.422;2022-08-01T13:40:49;5.65;;;2.30;;
28802;SDS011;15949;55.656;37.422;2022-08-01T13:46:03;5.55;;;2.10;;
28802;SDS011;15949;55.656;37.422;2022-08-01T13:51:09;4.63;;;2.00;;
28802;SDS011;15949;55.656;37.422;2022-08-01T13:56:14;6.32;;;2.03;;
28802;SDS011;15949;55.656;37.422;2022-08-01T14:01:22;4.47;;;1.80;;
28802;SDS011;15949;55.656;37.422;2022-08-01T14:06:29;5.13;;;2.20;;
28802;SDS011;15949;55.656;37.422;2022-08-01T14:11:34;7.82;;;2.50;;
28802;SDS011;15949;55.656;37.422;2022-08-01T14:16:41;10.23;;;1.90;;
28802;SDS011;15949;55.656;37.422;2022-08-01T14:21:49;4.40;;;1.90;;
28802;SDS011;15949;55.656;37.422;2022-08-01T14:26:57;4.90;;;2.42;;
28802;SDS011;15949;55.656;37.422;2022-08-01T14:32:03;6.03;;;2.05;;
28802;SDS011;15949;55.656;37.422;2022-08-01T14:37:09;4.60;;;1.83;;
28802;SDS011;15949;55.656;37.422;2022-08-01T14:42:14;8.18;;;1.92;;
28802;SDS011;15949;55.656;37.422;2022-08-01T14:47:20;9.07;;;2.17;;
28802;SDS011;15949;55.656;37.422;2022-08-01T14:52:25;5.80;;;2.10;;
28802;SDS011;15949;55.656;37.422;2022-08-01T14:57:31;5.50;;;2.10;;
28802;SDS011;15949;55.656;37.422;2022-08-01T15:02:37;4.07;;;2.00;;
28802;SDS011;15949;55.656;37.422;2022-08-01T15:07:44;4.20;;;1.85;;
28802;SDS011;15949;55.656;37.422;2022-08-01T15:12:49;8.40;;;1.85;;
28802;SDS011;15949;55.656;37.422;2022-08-01T15:17:56;6.03;;;2.30;;
28802;SDS011;15949;55.656;37.422;2022-08-01T15:23:01;13.77;;;2.63;;
28802;SDS011;15949;55.656;37.422;2022-08-01T15:28:11;4.43;;;2.08;;
28802;SDS011;15949;55.656;37.422;2022-08-01T15:33:17;3.88;;;2.50;;
28802;SDS011;15949;55.656;37.422;2022-08-01T15:38:22;11.95;;;2.40;;
28802;SDS011;15949;55.656;37.422;2022-08-01T15:43:28;5.18;;;2.20;;
28802;SDS011;15949;55.656;37.422;2022-08-01T15:48:33;5.07;;;1.92;;
28802;SDS011;15949;55.656;37.422;2022-08-01T15:53:39;7.95;;;2.30;;
28802;SDS011;15949;55.656;37.422;2022-08-01T15:58:45;7.68;;;2.40;;
28802;SDS011;15949;55.656;37.422;2022-08-01T16:03:51;5.65;;;2.17;;
28802;SDS011;15949;55.656;37.422;2022-08-01T16:08:58;4.72;;;2.30;;
28802;SDS011;15949;55.656;37.422;2022-08-01T16:14:03;4.78;;;1.85;;
28802;SDS011;15949;55.656;37.422;2022-08-01T16:19:10;6.25;;;1.90;;
28802;SDS011;15949;55.656;37.422;2022-08-01T16:24:16;4.97;;;1.98;;
28802;SDS011;15949;55.656;37.422;2022-08-01T16:29:22;5.38;;;2.20;;
28802;SDS011;15949;55.656;37.422;2022-08-01T16:34:29;6.13;;;2.40;;
28802;SDS011;15949;55.656;37.422;2022-08-01T16:39:35;5.65;;;2.40;;
28802;SDS011;15949;55.656;37.422;2022-08-01T16:44:41;6.57;;;2.35;;
28802;SDS011;15949;55.656;37.422;2022-08-01T16:49:47;5.95;;;2.70;;
28802;SDS011;15949;55.656;37.422;2022-08-01T16:54:52;6.00;;;2.70;;
28802;SDS011;15949;55.656;37.422;2022-08-01T16:59:58;8.07;;;3.00;;
28802;SDS011;15949;55.656;37.422;2022-08-01T17:05:04;6.63;;;2.90;;
28802;SDS011;15949;55.656;37.422;2022-08-01T17:10:10;11.38;;;2.90;;
28802;SDS011;15949;55.656;37.422;2022-08-01T17:15:18;9.43;;;2.80;;
28802;SDS011;15949;55.656;37.422;2022-08-01T17:20:23;8.00;;;2.80;;
28802;SDS011;15949;55.656;37.422;2022-08-01T17:25:29;9.35;;;3.15;;
28802;SDS011;15949;55.656;37.422;2022-08-01T17:30:35;13.40;;;3.28;;
28802;SDS011;15949;55.656;37.422;2022-08-01T17:35:44;31.15;;;4.22;;
28802;SDS011;15949;55.656;37.422;2022-08-01T17:40:50;18.45;;;3.28;;
28802;SDS011;15949;55.656;37.422;2022-08-01T17:45:55;16.83;;;4.03;;
28802;SDS011;15949;55.656;37.422;2022-08-01T17:51:01;11.15;;;3.70;;
28802;SDS011;15949;55.656;37.422;2022-08-01T17:56:07;13.43;;;4.85;;
28802;SDS011;15949;55.656;37.422;2022-08-01T18:01:13;18.23;;;5.45;;
28802;SDS011;15949;55.656;37.422;2022-08-01T18:06:20;13.18;;;5.43;;
28802;SDS011;15949;55.656;37.422;2022-08-01T18:11:26;14.88;;;5.20;;
28802;SDS011;15949;55.656;37.422;2022-08-01T18:16:32;13.38;;;5.38;;
28802;SDS011;15949;55.656;37.422;2022-08-01T18:21:38;15.07;;;4.97;;
28802;SDS011;15949;55.656;37.422;2022-08-01T18:26:43;17.27;;;5.50;;
28802;SDS011;15949;55.656;37.422;2022-08-01T18:31:51;13.13;;;4.83;;
28802;SDS011;15949;55.656;37.422;2022-08-01T18:36:59;14.70;;;5.32;;
28802;SDS011;15949;55.656;37.422;2022-08-01T18:42:05;24.23;;;4.88;;
28802;SDS011;15949;55.656;37.422;2022-08-01T18:47:11;19.38;;;4.78;;
28802;SDS011;15949;55.656;37.422;2022-08-01T18:52:16;28.25;;;4.82;;
28802;SDS011;15949;55.656;37.422;2022-08-01T18:57:22;16.50;;;4.47;;
28802;SDS011;15949;55.656;37.422;2022-08-01T19:02:28;10.93;;;3.75;;
28802;SDS011;15949;55.656;37.422;2022-08-01T19:07:33;8.88;;;3.45;;
28802;SDS011;15949;55.656;37.422;2022-08-01T19:12:39;10.73;;;3.80;;
28802;SDS011;15949;55.656;37.422;2022-08-01T19:17:44;6.15;;;3.55;;
28802;SDS011;15949;55.656;37.422;2022-08-01T19:22:51;9.18;;;3.95;;
28802;SDS011;15949;55.656;37.422;2022-08-01T19:27:56;12.15;;;4.32;;
28802;SDS011;15949;55.656;37.422;2022-08-01T19:33:03;10.25;;;3.90;;
28802;SDS011;15949;55.656;37.422;2022-08-01T19:38:09;8.38;;;3.90;;
28802;SDS011;15949;55.656;37.422;2022-08-01T19:43:15;6.75;;;3.40;;
28802;SDS011;15949;55.656;37.422;2022-08-01T19:48:24;12.30;;;4.15;;
28802;SDS011;15949;55.656;37.422;2022-08-01T19:53:31;10.38;;;4.18;;
28802;SDS011;15949;55.656;37.422;2022-08-01T19:58:41;14.82;;;3.90;;
28802;SDS011;15949;55.656;37.422;2022-08-01T20:03:47;9.50;;;3.80;;
28802;SDS011;15949;55.656;37.422;2022-08-01T20:08:54;11.38;;;4.07;;
28802;SDS011;15949;55.656;37.422;2022-08-01T20:13:59;9.32;;;3.47;;
28802;SDS011;15949;55.656;37.422;2022-08-01T20:19:06;10.40;;;3.33;;
28802;SDS011;15949;55.656;37.422;2022-08-01T20:24:13;7.30;;;3.83;;
28802;SDS011;15949;55.656;37.422;2022-08-01T20:29:22;8.73;;;3.20;;
28802;SDS011;15949;55.656;37.422;2022-08-01T20:34:29;13.13;;;4.00;;
28802;SDS011;15949;55.656;37.422;2022-08-01T20:39:41;8.73;;;3.45;;
28802;SDS011;15949;55.656;37.422;2022-08-01T20:44:47;8.35;;;3.22;;
28802;SDS011;15949;55.656;37.422;2022-08-01T20:49:56;11.90;;;3.53;;
28802;SDS011;15949;55.656;37.422;2022-08-01T20:55:22;9.77;;;3.58;;
28802;SDS011;15949;55.656;37.422;2022-08-01T21:00:30;13.37;;;3.70;;
28802;SDS011;15949;55.656;37.422;2022-08-01T21:05:39;10.45;;;3.80;;
28802;SDS011;15949;55.656;37.422;2022-08-01T21:10:46;7.35;;;3.15;;
28802;SDS011;15949;55.656;37.422;2022-08-01T21:16:05;13.45;;;3.70;;
28802;SDS011;15949;55.656;37.422;2022-08-01T21:21:16;9.15;;;3.30;;
28802;SDS011;15949;55.656;37.422;2022-08-01T21:26:24;8.05;;;3.00;;
28802;SDS011;15949;55.656;37.422;2022-08-01T21:31:33;7.50;;;3.13;;
28802;SDS011;15949;55.656;37.422;2022-08-01T21:36:40;7.88;;;3.47;;
28802;SDS011;15949;55.656;37.422;2022-08-01T21:41:49;10.98;;;2.92;;
28802;SDS011;15949;55.656;37.422;2022-08-01T21:46:58;11.02;;;3.22;;
28802;SDS011;15949;55.656;37.422;2022-08-01T22:02:50;4.28;;;2.58;;
28802;SDS011;15949;55.656;37.422;2022-08-01T22:08:06;7.18;;;2.97;;
28802;SDS011;15949;55.656;37.422;2022-08-01T22:13:14;10.52;;;2.95;;
28802;SDS011;15949;55.656;37.422;2022-08-01T22:18:20;5.97;;;2.90;;
28802;SDS011;15949;55.656;37.422;2022-08-01T22:23:26;7.05;;;2.60;;
28802;SDS011;15949;55.656;37.422;2022-08-01T22:28:36;7.55;;;2.70;;
28802;SDS011;15949;55.656;37.422;2022-08-01T22:33:42;6.63;;;2.50;;
28802;SDS011;15949;55.656;37.422;2022-08-01T22:38:50;9.75;;;2.70;;
28802;SDS011;15949;55.656;37.422;2022-08-01T22:44:03;5.15;;;2.40;;
28802;SDS011;15949;55.656;37.422;2022-08-01T22:54:39;4.25;;;2.30;;
28802;SDS011;15949;55.656;37.422;2022-08-01T22:59:48;13.87;;;2.50;;
28802;SDS011;15949;55.656;37.422;2022-08-01T23:05:10;5.88;;;2.00;;
28802;SDS011;15949;55.656;37.422;2022-08-01T23:10:21;8.80;;;2.30;;
28802;SDS011;15949;55.656;37.422;2022-08-01T23:15:29;4.97;;;2.50;;
28802;SDS011;15949;55.656;37.422;2022-08-01T23:20:35;7.35;;;2.40;;
28802;SDS011;15949;55.656;37.422;2022-08-01T23:25:42;4.45;;;1.88;;
28802;SDS011;15949;55.656;37.422;2022-08-01T23:30:48;4.90;;;2.17;;
28802;SDS011;15949;55.656;37.422;2022-08-01T23:35:54;5.22;;;1.98;;
28802;SDS011;15949;55.656;37.422;2022-08-01T23:41:00;7.10;;;2.00;;
28802;SDS011;15949;55.656;37.422;2022-08-01T23:46:05;6.40;;;2.10;;
28802;SDS011;15949;55.656;37.422;2022-08-01T23:51:11;5.32;;;2.17;;
28802;SDS011;15949;55.656;37.422;2022-08-01T23:56:16;5.13;;;2.50;;
